Time;durP1;ratioP1;P1;durP2;ratioP2;P2;SDS_P1;SDS_P2;PMS_P1;PMS_P2;Temp;Humidity;BMP_temperature;BMP_pressure;BME280_temperature;BME280_humidity;BME280_pressure;Samples;Min_cycle;Max_cycle;Signal;HPM_P1;HPM_P2
2023/07/16 00:00:27;;;;;;;8.73;4.65;;;;;;;23.50;53.70;99967.28;4216056;28;21836;-63
2023/07/16 00:02:53;;;;;;;8.83;5.37;;;;;;;23.45;53.73;99964.44;4228918;28;20232;-65
2023/07/16 00:05:20;;;;;;;9.73;5.60;;;;;;;23.57;53.27;99969.94;4225025;28;20281;-66
2023/07/16 00:07:47;;;;;;;8.60;5.00;;;;;;;23.43;53.67;99966.59;4224121;28;20248;-64
2023/07/16 00:10:13;;;;;;;6.97;4.53;;;;;;;23.45;53.83;99958.09;4225724;28;21478;-66
2023/07/16 00:12:40;;;;;;;7.73;5.10;;;;;;;23.27;54.49;99955.22;4218693;28;21150;-64
2023/07/16 00:15:07;;;;;;;6.93;4.67;;;;;;;23.20;54.32;99961.97;4228337;28;20255;-65
2023/07/16 00:17:34;;;;;;;8.85;5.15;;;;;;;23.27;54.05;99957.16;4218662;28;22984;-64
2023/07/16 00:20:01;;;;;;;8.25;5.40;;;;;;;23.25;54.10;99957.41;4222083;28;21041;-66
2023/07/16 00:22:28;;;;;;;7.85;5.28;;;;;;;23.23;54.13;99953.19;4226957;28;22390;-66
2023/07/16 00:24:55;;;;;;;9.38;4.70;;;;;;;23.27;54.05;99952.47;4217704;28;20244;-64
2023/07/16 00:27:21;;;;;;;12.03;5.43;;;;;;;23.08;54.96;99959.19;4221759;28;22915;-64
2023/07/16 00:29:48;;;;;;;7.63;4.88;;;;;;;23.14;54.77;99961.00;4224075;28;20228;-66
2023/07/16 00:32:15;;;;;;;8.23;4.67;;;;;;;23.11;54.79;99951.28;4220510;28;20235;-64
2023/07/16 00:34:41;;;;;;;7.97;4.80;;;;;;;23.24;54.51;99958.50;4215526;28;20330;-66
2023/07/16 00:37:08;;;;;;;9.00;5.00;;;;;;;23.20;54.29;99951.75;4220835;28;21108;-64
2023/07/16 00:39:34;;;;;;;9.38;5.50;;;;;;;23.23;54.62;99955.94;4220555;28;20231;-64
2023/07/16 00:42:01;;;;;;;9.60;5.30;;;;;;;23.21;54.90;99961.72;4215292;28;20251;-65
2023/07/16 00:44:27;;;;;;;7.57;4.87;;;;;;;23.14;55.00;99965.69;4222310;28;20235;-65
2023/07/16 00:46:54;;;;;;;7.85;5.18;;;;;;;22.97;55.28;99962.81;4225868;28;20662;-67
2023/07/16 00:49:21;;;;;;;10.13;4.77;;;;;;;23.03;55.44;99956.34;4218694;28;20231;-66
2023/07/16 00:51:47;;;;;;;7.80;5.13;;;;;;;22.91;55.72;99957.19;4217058;28;20243;-64
2023/07/16 00:54:14;;;;;;;11.33;5.50;;;;;;;22.88;55.82;99965.97;4221341;28;20876;-68
2023/07/16 00:56:41;;;;;;;10.53;5.20;;;;;;;22.84;55.99;99959.22;4186733;28;20490;-64
2023/07/16 00:59:08;;;;;;;13.67;5.70;;;;;;;22.70;56.54;99961.38;4215135;28;20228;-64
2023/07/16 01:01:34;;;;;;;8.90;4.97;;;;;;;22.71;56.50;99959.47;4218038;28;20982;-66
2023/07/16 01:04:01;;;;;;;8.30;4.93;;;;;;;22.58;56.94;99957.78;4225598;28;20247;-65
2023/07/16 01:06:35;;;;;;;8.80;5.20;;;;;;;22.67;56.66;99952.72;4211653;28;20232;-65
2023/07/16 01:09:19;;;;;;;10.33;5.27;;;;;;;22.58;57.34;99943.97;4224014;28;23266;-65
2023/07/16 01:11:47;;;;;;;8.83;5.10;;;;;;;22.57;57.26;99928.50;4206772;28;21103;-65
2023/07/16 01:14:16;;;;;;;10.20;5.30;;;;;;;22.53;57.51;99939.19;4196721;28;20824;-65
2023/07/16 01:16:43;;;;;;;7.77;5.30;;;;;;;22.54;57.14;99934.53;4194813;28;20235;-66
2023/07/16 01:19:10;;;;;;;10.73;5.07;;;;;;;22.60;57.13;99937.16;4197809;28;24376;-64
2023/07/16 01:21:46;;;;;;;13.63;5.10;;;;;;;22.76;56.87;99924.56;4200198;28;20483;-65
2023/07/16 01:24:30;;;;;;;10.03;5.23;;;;;;;22.63;57.12;99925.66;4192612;28;20236;-64
2023/07/16 01:27:18;;;;;;;10.83;6.17;;;;;;;22.51;57.99;99919.25;4191400;28;20319;-66
2023/07/16 01:29:50;;;;;;;9.63;5.55;;;;;;;22.60;57.67;99926.09;4194994;28;20245;-65
2023/07/16 01:32:17;;;;;;;9.87;5.37;;;;;;;22.54;58.02;99923.50;4196497;28;20299;-65
2023/07/16 01:34:43;;;;;;;9.27;5.23;;;;;;;22.57;57.98;99928.50;4199188;28;20236;-65
2023/07/16 01:37:10;;;;;;;7.35;5.38;;;;;;;22.54;58.08;99923.50;4189381;28;21222;-65
2023/07/16 01:39:37;;;;;;;8.80;4.80;;;;;;;22.58;58.23;99927.44;4200656;28;20232;-65
2023/07/16 01:42:04;;;;;;;9.13;5.87;;;;;;;22.58;58.02;99922.75;4192887;28;20228;-66
2023/07/16 01:44:31;;;;;;;10.10;5.53;;;;;;;22.59;58.07;99916.16;4197128;28;20320;-64
2023/07/16 01:47:09;;;;;;;9.77;5.63;;;;;;;22.58;58.40;99919.97;4203252;28;20232;-65
2023/07/16 01:49:35;;;;;;;9.43;5.20;;;;;;;22.46;58.83;99917.25;4191634;28;20299;-64
2023/07/16 01:52:03;;;;;;;10.10;5.83;;;;;;;22.35;59.02;99919.97;4198919;28;20248;-65
2023/07/16 01:54:30;;;;;;;11.10;5.53;;;;;;;22.35;59.18;99914.44;4206035;28;20248;-67
2023/07/16 01:56:56;;;;;;;9.80;5.60;;;;;;;22.45;58.91;99914.72;4199152;28;20687;-68
2023/07/16 01:59:23;;;;;;;8.30;5.57;;;;;;;22.47;58.75;99913.38;4191276;28;20236;-67
2023/07/16 02:01:49;;;;;;;8.10;5.57;;;;;;;22.43;59.04;99905.84;4197024;28;22186;-64
2023/07/16 02:04:16;;;;;;;8.60;5.70;;;;;;;22.40;59.48;99911.84;4195350;28;20310;-65
2023/07/16 02:06:43;;;;;;;8.67;5.70;;;;;;;22.26;59.61;99894.66;4197460;28;20279;-65
2023/07/16 02:09:10;;;;;;;9.40;5.67;;;;;;;22.44;59.29;99907.50;4201500;28;20240;-67
2023/07/16 02:11:36;;;;;;;10.93;5.83;;;;;;;22.34;59.96;99898.97;4213719;28;20653;-64
2023/07/16 02:14:03;;;;;;;8.87;5.33;;;;;;;22.29;60.26;99907.97;4214539;28;22103;-65
2023/07/16 02:16:30;;;;;;;10.03;5.47;;;;;;;22.35;59.86;99907.00;4217019;28;20674;-65
2023/07/16 02:18:56;;;;;;;13.90;5.97;;;;;;;22.34;60.02;99910.84;4227324;28;20430;-65
2023/07/16 02:21:23;;;;;;;8.17;5.77;;;;;;;22.29;60.41;99902.44;4220851;28;21798;-64
2023/07/16 02:23:50;;;;;;;13.03;6.10;;;;;;;22.13;60.91;99893.81;4210885;28;20322;-64
2023/07/16 02:26:16;;;;;;;12.13;6.17;;;;;;;22.06;61.06;99901.34;4220489;28;20274;-65
2023/07/16 02:28:43;;;;;;;10.93;5.80;;;;;;;22.02;61.27;99896.53;4223458;28;20237;-65
2023/07/16 02:31:10;;;;;;;9.23;5.83;;;;;;;22.02;61.43;99899.28;4213785;28;20235;-66
2023/07/16 02:33:36;;;;;;;10.63;5.93;;;;;;;22.12;61.42;99896.81;4221034;28;20236;-65
2023/07/16 02:36:03;;;;;;;13.20;6.30;;;;;;;22.05;61.73;99899.66;4222402;28;20345;-65
2023/07/16 02:38:30;;;;;;;14.20;5.90;;;;;;;22.07;61.39;99903.03;4213868;28;25085;-66
2023/07/16 02:40:57;;;;;;;12.40;6.23;;;;;;;22.02;61.86;99889.09;4221919;28;20587;-65
2023/07/16 02:43:23;;;;;;;8.40;5.83;;;;;;;22.00;62.22;99885.75;4217812;28;20223;-64
2023/07/16 02:45:50;;;;;;;9.07;6.03;;;;;;;21.99;62.16;99890.41;4218861;28;20283;-64
2023/07/16 02:48:17;;;;;;;10.17;6.33;;;;;;;22.06;61.83;99893.06;4220473;28;20240;-65
2023/07/16 02:50:43;;;;;;;9.00;6.07;;;;;;;22.26;61.22;99894.66;4216872;28;20239;-64
2023/07/16 02:53:10;;;;;;;9.37;5.83;;;;;;;22.11;62.17;99892.38;4219600;28;20237;-64
2023/07/16 02:55:37;;;;;;;10.07;6.03;;;;;;;22.10;62.21;99898.94;4215983;28;20639;-65
2023/07/16 02:58:04;;;;;;;8.97;5.50;;;;;;;22.09;62.13;99897.25;4229655;28;20240;-65
2023/07/16 03:00:31;;;;;;;11.57;6.47;;;;;;;22.14;62.10;99897.38;4209661;28;20486;-66
2023/07/16 03:02:58;;;;;;;10.97;6.20;;;;;;;22.12;62.20;99888.53;4222754;28;20231;-65
2023/07/16 03:05:26;;;;;;;11.07;6.13;;;;;;;22.08;62.49;99884.56;4200469;28;21586;-66
2023/07/16 03:07:53;;;;;;;11.75;6.65;;;;;;;22.03;62.63;99889.94;4231165;28;20597;-65
2023/07/16 03:10:21;;;;;;;13.20;6.78;;;;;;;22.13;62.22;99882.78;4220278;28;22346;-66
2023/07/16 03:12:48;;;;;;;13.40;6.10;;;;;;;22.07;62.83;99889.25;4232146;28;20227;-64
2023/07/16 03:15:15;;;;;;;11.63;6.60;;;;;;;22.04;62.92;99891.63;4235275;28;20229;-63
2023/07/16 03:17:41;;;;;;;12.13;6.10;;;;;;;22.11;62.84;99895.94;4237460;28;20240;-63
2023/07/16 03:20:09;;;;;;;8.70;6.27;;;;;;;22.09;62.60;99906.34;4226438;28;22249;-63
2023/07/16 03:22:36;;;;;;;9.07;6.23;;;;;;;22.00;63.05;99905.03;4227459;28;21164;-65
2023/07/16 03:25:03;;;;;;;8.47;6.27;;;;;;;21.95;63.54;99908.50;4230441;28;26164;-64
2023/07/16 03:27:30;;;;;;;16.10;6.93;;;;;;;21.92;63.81;99905.38;4218573;28;22289;-66
2023/07/16 03:29:57;;;;;;;9.73;6.13;;;;;;;22.01;63.65;99909.50;4230654;28;20460;-65
2023/07/16 03:32:24;;;;;;;10.27;6.50;;;;;;;22.05;63.47;99918.94;4229913;28;20407;-64
2023/07/16 03:35:03;;;;;;;9.13;6.50;;;;;;;22.08;63.35;99912.97;4229895;28;23639;-65
2023/07/16 03:37:30;;;;;;;10.13;6.80;;;;;;;22.07;63.36;99914.03;4229561;28;20372;-65
2023/07/16 03:40:12;;;;;;;10.73;6.40;;;;;;;22.03;63.95;99917.50;4222237;28;26235;-66
2023/07/16 03:42:39;;;;;;;12.00;6.70;;;;;;;21.91;64.18;99923.81;4241989;28;20420;-65
2023/07/16 03:45:06;;;;;;;10.13;6.47;;;;;;;21.90;64.62;99926.81;4239593;28;20741;-64
2023/07/16 03:47:33;;;;;;;10.63;6.60;;;;;;;21.93;64.29;99921.69;4217763;28;20242;-64
2023/07/16 03:50:00;;;;;;;14.63;7.10;;;;;;;21.99;64.43;99912.47;4229898;28;21068;-65
2023/07/16 03:52:28;;;;;;;11.33;6.77;;;;;;;22.04;64.53;99922.78;4216380;28;20355;-65
2023/07/16 03:54:55;;;;;;;12.23;6.60;;;;;;;22.01;64.71;99920.50;4223617;28;20306;-67
2023/07/16 03:57:22;;;;;;;12.07;6.33;;;;;;;22.04;64.56;99928.28;4232946;28;20250;-65
2023/07/16 03:59:48;;;;;;;13.77;6.37;;;;;;;22.21;63.76;99925.69;4230341;28;22918;-66
2023/07/16 04:02:15;;;;;;;12.83;7.20;;;;;;;22.29;63.66;99924.50;4216397;28;20447;-64
2023/07/16 04:04:41;;;;;;;9.13;6.10;;;;;;;22.21;64.28;99928.44;4216309;28;20228;-65
2023/07/16 04:07:08;;;;;;;8.70;6.60;;;;;;;22.34;63.77;99921.03;4222277;28;20259;-65
2023/07/16 04:09:38;;;;;;;9.00;6.40;;;;;;;22.27;63.94;99918.38;4221855;28;20232;-65
2023/07/16 04:12:05;;;;;;;12.60;6.63;;;;;;;22.35;63.77;99915.28;4214977;28;20236;-64
2023/07/16 04:14:32;;;;;;;10.20;6.77;;;;;;;22.39;63.73;99927.56;4223864;28;20519;-64
2023/07/16 04:16:59;;;;;;;12.77;7.63;;;;;;;22.44;63.60;99916.66;4226774;28;20247;-66
2023/07/16 04:19:26;;;;;;;11.97;7.20;;;;;;;22.53;63.17;99916.28;4219530;28;21746;-66
2023/07/16 04:21:53;;;;;;;14.93;7.03;;;;;;;22.62;63.17;99923.13;4225664;28;20333;-64
2023/07/16 04:24:19;;;;;;;12.23;6.80;;;;;;;22.67;63.08;99906.69;4214867;28;20616;-65
2023/07/16 04:26:46;;;;;;;15.77;6.73;;;;;;;22.71;62.84;99916.16;4222507;28;20721;-65
2023/07/16 04:29:12;;;;;;;11.23;6.17;;;;;;;22.75;63.03;99914.59;4222159;28;20577;-65
2023/07/16 04:31:39;;;;;;;9.63;6.67;;;;;;;22.78;63.04;99913.28;4222123;28;20287;-66
2023/07/16 04:34:06;;;;;;;12.17;6.33;;;;;;;22.94;62.55;99917.22;4216412;28;20270;-64
2023/07/16 04:36:32;;;;;;;12.07;6.47;;;;;;;22.92;62.33;99920.22;4219862;28;20262;-54
2023/07/16 04:38:59;;;;;;;15.43;7.03;;;;;;;22.89;63.14;99920.69;4228991;28;20230;-45
2023/07/16 04:41:26;;;;;;;10.87;6.13;;;;;;;23.06;62.12;99926.31;4233876;28;20234;-45
2023/07/16 04:43:52;;;;;;;8.93;6.57;;;;;;;23.14;62.00;99922.34;4245557;28;22248;-73
2023/07/16 04:46:19;;;;;;;13.48;6.70;;;;;;;23.23;61.86;99915.38;4225788;28;20230;-73
2023/07/16 04:48:46;;;;;;;9.93;6.80;;;;;;;23.25;61.93;99921.50;4234946;28;20250;-62
2023/07/16 04:51:13;;;;;;;14.37;6.70;;;;;;;23.27;61.77;99915.75;4209612;28;22964;-62
2023/07/16 04:53:40;;;;;;;11.47;6.77;;;;;;;23.34;61.75;99918.38;4221107;28;22327;-61
2023/07/16 04:56:12;;;;;;;12.15;6.88;;;;;;;23.46;61.40;99921.94;4218308;28;20235;-62
2023/07/16 04:58:39;;;;;;;14.77;6.47;;;;;;;23.44;61.44;99926.84;4245396;28;20244;-65
2023/07/16 05:01:07;;;;;;;10.77;6.53;;;;;;;23.49;61.22;99920.59;4232731;28;20989;-65
2023/07/16 05:03:33;;;;;;;11.10;6.80;;;;;;;23.65;60.96;99924.47;4243897;28;20300;-47
2023/07/16 05:06:00;;;;;;;8.80;6.57;;;;;;;23.65;61.15;99927.25;4276569;28;20287;-47
2023/07/16 05:08:27;;;;;;;9.80;5.77;;;;;;;23.68;61.40;99922.06;4209209;28;20654;-64
2023/07/16 05:10:54;;;;;;;11.03;7.50;;;;;;;23.79;60.93;99922.25;4230230;28;20236;-63
2023/07/16 05:13:20;;;;;;;10.07;6.53;;;;;;;23.78;61.14;99923.34;4188020;28;20230;-66
2023/07/16 05:15:47;;;;;;;13.80;7.23;;;;;;;23.92;60.25;99927.47;4236093;28;20520;-64
2023/07/16 05:18:14;;;;;;;10.20;6.57;;;;;;;24.00;60.43;99923.50;4229696;28;20248;-63
2023/07/16 05:20:40;;;;;;;11.60;6.97;;;;;;;23.92;60.57;99924.72;4213806;28;20243;-63
2023/07/16 05:23:09;;;;;;;11.27;6.47;;;;;;;23.94;60.84;99917.03;4240548;28;20233;-62
2023/07/16 05:25:36;;;;;;;11.83;6.47;;;;;;;24.13;60.35;99914.06;4231771;28;20232;-64
2023/07/16 05:28:03;;;;;;;10.33;6.50;;;;;;;24.23;59.95;99911.44;4233565;28;23015;-65
2023/07/16 05:30:30;;;;;;;11.93;6.93;;;;;;;24.19;60.07;99910.28;4225442;28;20235;-63
2023/07/16 05:32:57;;;;;;;13.73;6.87;;;;;;;24.53;59.25;99915.78;4226051;28;21793;-65
2023/07/16 05:35:23;;;;;;;12.20;7.23;;;;;;;24.89;58.13;99908.03;4254085;28;22398;-66
2023/07/16 05:37:50;;;;;;;10.77;6.03;;;;;;;25.28;56.67;99902.47;4229219;28;21740;-63
2023/07/16 05:40:17;;;;;;;14.47;6.40;;;;;;;25.87;55.25;99897.31;4227650;28;20252;-67
2023/07/16 05:42:43;;;;;;;8.20;6.18;;;;;;;26.08;54.65;99913.06;4205098;28;20278;-65
2023/07/16 05:45:11;;;;;;;9.82;6.32;;;;;;;26.45;53.79;99908.66;4230329;28;21170;-64
2023/07/16 05:47:38;;;;;;;9.65;5.95;;;;;;;27.22;51.66;99902.72;4227449;28;23372;-67
2023/07/16 05:50:05;;;;;;;12.68;6.25;;;;;;;27.11;52.17;99904.63;4227004;28;21628;-64
2023/07/16 05:52:32;;;;;;;11.10;6.60;;;;;;;27.48;50.68;99908.41;4217942;28;20244;-64
2023/07/16 05:54:58;;;;;;;10.00;5.88;;;;;;;28.04;49.71;99909.59;4246721;28;20290;-65
2023/07/16 05:57:25;;;;;;;8.48;5.70;;;;;;;28.67;48.09;99919.63;4213500;28;20248;-75
2023/07/16 05:59:52;;;;;;;9.73;5.40;;;;;;;29.75;44.95;99918.41;4210959;28;20239;-74
2023/07/16 06:02:21;;;;;;;9.68;5.35;;;;;;;30.61;42.76;99946.00;4225905;28;21711;-74
2023/07/16 06:04:48;;;;;;;11.20;4.95;;;;;;;31.75;40.33;99935.19;4203270;28;20315;-74
2023/07/16 06:07:16;;;;;;;11.95;5.22;;;;;;;32.39;39.71;99929.19;4218749;28;20872;-73
2023/07/16 06:09:43;;;;;;;10.63;4.75;;;;;;;32.97;38.01;99941.03;4223418;28;20546;-77
2023/07/16 06:12:10;;;;;;;13.50;5.35;;;;;;;32.54;38.41;99936.47;4218591;28;20240;-75
2023/07/16 06:14:36;;;;;;;10.30;5.82;;;;;;;32.37;38.42;99928.66;4216956;28;20242;-74
2023/07/16 06:17:03;;;;;;;7.88;4.95;;;;;;;32.86;38.01;99928.34;4227753;28;20527;-76
2023/07/16 06:19:30;;;;;;;8.70;5.00;;;;;;;33.38;37.27;99933.78;4232728;28;21833;-76
2023/07/16 06:21:57;;;;;;;12.38;5.40;;;;;;;33.24;36.96;99932.94;4216960;28;21140;-77
2023/07/16 06:24:23;;;;;;;8.00;5.20;;;;;;;32.72;38.09;99931.13;4203313;28;20231;-79
2023/07/16 06:26:50;;;;;;;7.75;5.28;;;;;;;33.62;36.73;99929.91;4220765;28;21185;-78
2023/07/16 06:29:16;;;;;;;9.93;5.18;;;;;;;33.17;37.17;99936.16;4222253;28;20600;-76
2023/07/16 06:31:44;;;;;;;11.25;5.55;;;;;;;33.55;37.16;99943.53;4224655;28;20277;-80
2023/07/16 06:34:11;;;;;;;13.57;5.38;;;;;;;33.97;35.97;99938.66;4221482;28;20238;-75
2023/07/16 06:36:38;;;;;;;8.90;4.97;;;;;;;34.14;35.53;99943.59;4220580;28;21023;-78
2023/07/16 06:39:05;;;;;;;8.10;5.60;;;;;;;34.11;35.66;99950.66;4236249;28;20540;-76
2023/07/16 06:41:32;;;;;;;8.15;4.97;;;;;;;34.50;35.03;99947.50;4192140;28;20246;-76
2023/07/16 06:43:58;;;;;;;10.45;5.40;;;;;;;35.46;33.70;99958.44;4224888;28;20239;-77
2023/07/16 06:46:25;;;;;;;17.17;5.07;;;;;;;36.33;32.08;99966.13;4243167;28;20293;-76
2023/07/16 06:48:52;;;;;;;7.57;5.43;;;;;;;35.83;32.84;99967.44;4214934;28;22161;-76
2023/07/16 06:51:18;;;;;;;10.75;5.50;;;;;;;35.37;33.72;99978.03;4226483;28;21262;-75
2023/07/16 06:53:47;;;;;;;12.57;5.03;;;;;;;36.84;31.87;99971.19;4208329;28;21402;-76
2023/07/16 06:56:14;;;;;;;11.88;5.82;;;;;;;36.98;31.56;99974.66;4212053;28;20418;-75
2023/07/16 06:58:42;;;;;;;7.68;4.95;;;;;;;37.54;30.72;99973.75;4220750;28;20251;-75
2023/07/16 07:01:08;;;;;;;7.20;4.78;;;;;;;36.55;32.01;99979.22;4232937;28;21730;-79
2023/07/16 07:03:35;;;;;;;7.32;5.18;;;;;;;36.47;31.89;99975.25;4223799;28;20326;-75
2023/07/16 07:06:05;;;;;;;8.05;5.15;;;;;;;35.08;33.73;99984.25;4221602;28;20235;-74
2023/07/16 07:08:31;;;;;;;6.93;5.10;;;;;;;35.40;33.26;99982.22;4240853;28;21213;-76
2023/07/16 07:10:58;;;;;;;9.60;5.30;;;;;;;36.12;32.34;99988.50;4231553;28;20326;-76
2023/07/16 07:13:29;;;;;;;9.40;4.95;;;;;;;36.63;31.80;99971.91;4215099;28;21539;-78
2023/07/16 07:15:56;;;;;;;8.18;4.68;;;;;;;36.80;31.11;99971.03;4250091;28;20238;-77
2023/07/16 07:18:23;;;;;;;7.25;4.82;;;;;;;36.94;30.76;99976.47;4216159;28;20302;-74
2023/07/16 07:20:51;;;;;;;7.80;4.50;;;;;;;37.41;30.38;99978.47;4196950;28;20266;-77
2023/07/16 07:23:17;;;;;;;8.80;4.95;;;;;;;37.60;30.08;99983.66;4225685;28;20234;-75
2023/07/16 07:25:49;;;;;;;8.75;4.85;;;;;;;36.99;30.82;99983.94;4235245;28;20231;-77
2023/07/16 07:28:16;;;;;;;8.07;4.57;;;;;;;37.38;30.57;99979.97;4229580;28;20236;-76
2023/07/16 07:30:44;;;;;;;7.38;4.82;;;;;;;37.09;31.16;99975.09;4218501;28;20661;-75
2023/07/16 07:33:12;;;;;;;10.30;5.05;;;;;;;36.28;32.27;99988.81;4233780;28;20223;-76
2023/07/16 07:35:39;;;;;;;10.90;4.22;;;;;;;36.03;32.74;99971.59;4228009;28;20230;-76
2023/07/16 07:38:05;;;;;;;8.35;4.57;;;;;;;35.43;33.19;99956.25;4230332;28;21112;-76
2023/07/16 07:40:32;;;;;;;7.90;4.78;;;;;;;34.35;34.85;99943.91;4222192;28;20259;-78
2023/07/16 07:42:59;;;;;;;7.72;4.70;;;;;;;33.78;35.78;99933.19;4226938;28;20234;-75
2023/07/16 07:45:26;;;;;;;6.70;4.90;;;;;;;33.73;35.96;99950.16;4225386;28;20240;-74
2023/07/16 07:47:53;;;;;;;7.57;4.95;;;;;;;34.03;35.69;99936.56;4236920;28;20242;-75
2023/07/16 07:50:20;;;;;;;9.50;4.55;;;;;;;34.46;34.66;99950.13;4214170;28;20238;-76
2023/07/16 07:52:47;;;;;;;8.63;4.57;;;;;;;34.32;35.00;99943.72;4235403;28;20363;-77
2023/07/16 07:55:13;;;;;;;6.32;4.90;;;;;;;34.52;34.75;99942.41;4226911;28;20231;-78
2023/07/16 07:57:40;;;;;;;8.52;4.70;;;;;;;34.58;34.34;99944.75;4227208;28;20319;-73
2023/07/16 08:00:11;;;;;;;11.27;4.78;;;;;;;34.32;34.95;99932.47;4234195;28;20845;-78
2023/07/16 08:02:38;;;;;;;10.20;5.10;;;;;;;34.19;35.37;99937.00;4238036;28;20423;-78
2023/07/16 08:05:06;;;;;;;8.57;4.70;;;;;;;34.44;35.09;99935.59;4216054;28;20625;-77
2023/07/16 08:07:33;;;;;;;7.63;4.63;;;;;;;34.36;34.87;99944.75;4230203;28;20351;-75
2023/07/16 08:09:59;;;;;;;8.35;4.32;;;;;;;34.42;34.66;99929.44;4215928;28;20231;-74
2023/07/16 08:12:26;;;;;;;7.80;4.00;;;;;;;34.47;34.67;99925.69;4235487;28;20697;-76
2023/07/16 08:14:53;;;;;;;5.70;4.65;;;;;;;33.94;35.78;99928.09;4238575;28;20427;-80
2023/07/16 08:17:19;;;;;;;6.78;4.38;;;;;;;34.01;35.16;99920.03;4224529;28;20235;-76
2023/07/16 08:19:49;;;;;;;5.72;4.35;;;;;;;33.91;34.95;99912.69;4206516;28;20289;-77
2023/07/16 08:22:16;;;;;;;8.23;4.50;;;;;;;34.20;35.15;99919.00;4228729;28;25029;-77
2023/07/16 08:24:43;;;;;;;11.25;4.55;;;;;;;34.82;34.34;99912.63;4236125;28;20242;-74
2023/07/16 08:27:10;;;;;;;9.77;4.00;;;;;;;35.12;33.22;99907.31;4210944;28;21344;-78
2023/07/16 08:29:37;;;;;;;7.15;3.92;;;;;;;35.16;31.92;99908.31;4217742;28;20272;-76
2023/07/16 08:32:04;;;;;;;5.13;3.90;;;;;;;34.92;32.40;99914.38;4218687;28;20257;-77
2023/07/16 08:34:31;;;;;;;8.60;3.45;;;;;;;35.21;32.04;99912.97;4212855;28;20369;-79
2023/07/16 08:36:57;;;;;;;6.35;3.78;;;;;;;34.35;33.02;99910.19;4235409;28;20235;-79
2023/07/16 08:39:24;;;;;;;4.13;3.33;;;;;;;34.53;31.59;99908.34;4230472;28;20313;-75
2023/07/16 08:41:53;;;;;;;9.27;4.07;;;;;;;34.38;32.58;99895.53;4226801;28;20230;-75
2023/07/16 08:44:20;;;;;;;8.77;3.88;;;;;;;33.90;34.01;99901.78;4219859;28;20235;-76
2023/07/16 08:46:47;;;;;;;10.73;4.60;;;;;;;34.46;32.93;99901.53;4221695;28;20379;-74
2023/07/16 08:49:18;;;;;;;12.10;4.10;;;;;;;34.36;33.62;99906.22;4222841;28;20233;-79
2023/07/16 08:51:48;;;;;;;7.03;4.00;;;;;;;34.36;33.67;99908.22;4224531;28;20549;-75
2023/07/16 08:54:16;;;;;;;8.50;4.13;;;;;;;34.23;33.33;99901.53;4221221;28;20286;-77
2023/07/16 08:56:47;;;;;;;10.80;4.10;;;;;;;34.25;33.52;99905.66;4230879;28;21775;-75
2023/07/16 08:59:17;;;;;;;8.40;4.53;;;;;;;34.48;33.40;99905.69;4224629;28;20235;-72
2023/07/16 09:01:46;;;;;;;10.70;4.30;;;;;;;34.09;33.43;99907.22;4207976;28;20746;-79
2023/07/16 09:04:13;;;;;;;7.20;4.10;;;;;;;34.17;33.68;99905.63;4230628;28;23550;-73
2023/07/16 09:06:40;;;;;;;5.70;4.00;;;;;;;34.24;33.56;99894.75;4228557;28;22644;-74
2023/07/16 09:09:07;;;;;;;9.20;4.00;;;;;;;34.20;33.73;99910.59;4216755;28;20240;-71
2023/07/16 09:11:33;;;;;;;8.07;4.32;;;;;;;34.14;33.90;99907.09;4222868;28;20289;-74
2023/07/16 09:14:03;;;;;;;9.55;4.43;;;;;;;34.24;33.67;99901.19;4219713;28;20682;-77
2023/07/16 09:16:33;;;;;;;5.80;3.97;;;;;;;34.12;33.88;99898.16;4209588;28;21115;-74
2023/07/16 09:19:09;;;;;;;6.68;4.07;;;;;;;34.49;32.86;99898.06;4215084;28;21630;-73
2023/07/16 09:21:36;;;;;;;6.50;4.22;;;;;;;34.03;33.50;99895.25;4222701;28;20227;-71
2023/07/16 09:24:09;;;;;;;8.98;4.30;;;;;;;34.14;33.22;99898.66;4236100;28;20262;-76
2023/07/16 09:26:38;;;;;;;9.35;4.15;;;;;;;33.71;33.54;99885.06;4196426;28;20266;-71
2023/07/16 09:29:06;;;;;;;8.00;3.95;;;;;;;34.07;33.07;99889.84;4213993;28;20961;-74
2023/07/16 09:31:33;;;;;;;7.20;3.85;;;;;;;33.97;33.69;99894.56;4218594;28;20233;-72
2023/07/16 09:34:00;;;;;;;7.65;4.10;;;;;;;33.62;33.19;99887.81;4237033;28;20331;-75
2023/07/16 09:36:26;;;;;;;6.40;3.88;;;;;;;33.92;33.42;99880.66;4216253;28;21863;-74
2023/07/16 09:38:54;;;;;;;12.52;4.25;;;;;;;33.92;33.56;99885.44;4215894;28;20237;-75
2023/07/16 09:41:21;;;;;;;12.52;4.25;;;;;;;33.98;33.56;99886.97;4202940;28;20262;-72
2023/07/16 09:43:47;;;;;;;7.53;4.22;;;;;;;33.93;33.21;99885.13;4222914;28;20606;-73
2023/07/16 09:46:14;;;;;;;7.20;3.65;;;;;;;33.96;32.35;99884.50;4221583;28;21129;-72
2023/07/16 09:48:41;;;;;;;4.40;3.58;;;;;;;33.94;32.23;99880.34;4233847;28;21740;-74
2023/07/16 09:51:12;;;;;;;9.45;4.07;;;;;;;33.86;32.65;99883.91;4201848;28;25556;-73
2023/07/16 09:53:42;;;;;;;8.00;4.40;;;;;;;33.76;33.46;99885.78;4225979;28;20289;-73
2023/07/16 09:56:10;;;;;;;8.02;4.53;;;;;;;33.81;33.35;99879.22;4216770;28;20231;-75
2023/07/16 09:58:36;;;;;;;9.13;4.13;;;;;;;33.73;33.60;99883.59;4203827;28;20241;-72
2023/07/16 10:01:03;;;;;;;10.63;3.85;;;;;;;33.92;33.71;99885.44;4198473;28;20277;-72
2023/07/16 10:03:30;;;;;;;13.65;4.40;;;;;;;34.07;32.76;99870.19;4223297;28;23461;-69
2023/07/16 10:06:07;;;;;;;14.43;4.20;;;;;;;34.26;32.27;99878.41;4208577;28;20244;-71
2023/07/16 10:08:34;;;;;;;8.52;4.20;;;;;;;34.71;32.00;99881.16;4199525;28;20223;-75
2023/07/16 10:11:01;;;;;;;9.57;4.55;;;;;;;34.68;32.42;99879.00;4233852;28;20302;-72
2023/07/16 10:13:28;;;;;;;8.68;4.63;;;;;;;34.85;32.64;99883.03;4236674;28;20237;-74
2023/07/16 10:15:56;;;;;;;7.88;4.35;;;;;;;34.89;32.48;99879.28;4207649;28;20248;-72
2023/07/16 10:18:31;;;;;;;11.35;5.20;;;;;;;34.37;32.91;99876.22;4225483;28;20231;-73
2023/07/16 10:21:05;;;;;;;11.02;4.53;;;;;;;33.83;34.40;99887.31;4212580;28;21145;-74
2023/07/16 10:23:40;;;;;;;8.57;4.70;;;;;;;33.59;35.83;99878.06;4222218;28;21126;-73
2023/07/16 10:26:09;;;;;;;8.75;4.97;;;;;;;33.28;36.63;99880.66;4215585;28;21967;-76
2023/07/16 10:28:36;;;;;;;10.63;5.05;;;;;;;33.01;36.74;99885.16;4205778;28;20412;-74
2023/07/16 10:31:03;;;;;;;11.43;5.40;;;;;;;32.76;37.80;99878.91;4204109;28;21769;-73
2023/07/16 10:33:30;;;;;;;6.40;4.63;;;;;;;32.80;37.89;99871.56;4218125;28;20231;-73
2023/07/16 10:36:00;;;;;;;9.73;4.80;;;;;;;33.07;38.13;99866.28;4222252;28;20228;-74
2023/07/16 10:38:27;;;;;;;8.70;4.75;;;;;;;33.17;38.05;99880.91;4216232;28;20282;-72
2023/07/16 10:40:55;;;;;;;10.43;5.47;;;;;;;33.06;38.66;99879.44;4237973;28;20261;-74
2023/07/16 10:43:23;;;;;;;8.00;5.75;;;;;;;33.01;39.06;99880.38;4226830;28;20233;-76
2023/07/16 10:45:50;;;;;;;12.02;5.18;;;;;;;32.71;39.93;99879.81;4210910;28;21148;-78
2023/07/16 10:48:17;;;;;;;6.05;4.45;;;;;;;32.77;39.97;99879.78;4214202;28;20231;-74
2023/07/16 10:50:44;;;;;;;11.55;5.60;;;;;;;32.82;39.88;99890.88;4222174;28;26140;-72
2023/07/16 10:53:12;;;;;;;10.98;5.20;;;;;;;33.04;39.87;99881.75;4230043;28;20322;-75
2023/07/16 10:55:41;;;;;;;8.38;5.20;;;;;;;32.95;39.96;99878.00;4225720;28;22127;-74
2023/07/16 10:58:07;;;;;;;12.15;5.10;;;;;;;33.11;39.50;99884.97;4215748;28;20532;-78
2023/07/16 11:00:39;;;;;;;7.72;4.75;;;;;;;33.25;38.68;99886.91;4242822;28;20274;-74
2023/07/16 11:03:06;;;;;;;7.85;4.63;;;;;;;33.31;38.59;99880.09;4222510;28;20951;-74
2023/07/16 11:05:32;;;;;;;7.53;4.93;;;;;;;33.50;38.54;99891.97;4223050;28;22231;-75
2023/07/16 11:07:59;;;;;;;9.40;4.70;;;;;;;33.73;38.02;99880.78;4210341;28;20563;-72
2023/07/16 11:10:28;;;;;;;7.32;5.30;;;;;;;33.86;37.69;99875.50;4229216;28;20261;-74
2023/07/16 11:12:55;;;;;;;8.50;4.90;;;;;;;33.92;37.96;99877.84;4231243;28;20472;-77
2023/07/16 11:15:32;;;;;;;13.07;5.63;;;;;;;33.32;38.94;99879.75;4222491;28;20273;-74
2023/07/16 11:17:59;;;;;;;12.90;4.90;;;;;;;33.52;37.70;99888.88;4221848;28;20235;-73
2023/07/16 11:20:26;;;;;;;8.40;4.43;;;;;;;33.53;37.77;99884.09;4227776;28;20235;-75
2023/07/16 11:22:53;;;;;;;7.13;5.35;;;;;;;33.64;38.12;99886.34;4215888;28;20899;-73
2023/07/16 11:25:24;;;;;;;9.05;5.05;;;;;;;33.53;38.27;99890.53;4220876;28;21392;-74
2023/07/16 11:27:54;;;;;;;7.72;5.50;;;;;;;33.67;38.68;99890.47;4210440;28;20236;-77
2023/07/16 11:30:24;;;;;;;6.43;5.38;;;;;;;33.59;37.89;99891.22;4231082;28;20263;-73